Weather at Daniel K Inouye International Airport

Public forecast

Using degrees Fahrenheit for public forecast. Weather courtesy of forecast.io.

Current aviation weather report (METAR) for Daniel K Inouye International Airport

Retrieved 2021/05/11 02:53 UTC (58 minutes ago):

PHNL 110253Z 06012KT 10SM FEW024 SCT045 SCT060 28/18 A2999

Aviation forecast (TAF) for Daniel K Inouye International Airport

Retrieved 2021-05-11 03:09 UTC (42 minutes ago):

TAF PHNL 110306Z 1103/1206 07014G22KT P6SM FEW025 SCT040 SCT070 FM110600 07012KT P6SM FEW025 SCT040 FM111500 05006KT P6SM FEW025 SCT040 FM112100 05014G22KT P6SM FEW025 SCT040 SCT070